Dalanzadgad, Mongolia
Current Conditions -  °F | °C
As of 5:00 PM on Sunday 21 Dec 2014 (Local Time) from ZMUB Reporting Station
Clear Clear  
Wind Chill: -2°   Ceiling: Unl
Heat Index:   Visibility: 6mi
Dew Point:   Wind: 7mph
Humidity: 67%   Direction: 170°S
Pressure: 30.12"   Gusts: NA
Location:  43.58°N, 104.43°E
Report Text: ZMUB 210900Z 17003MPS CAVOK M13/M18 Q1020 NOSIG RMK QFE657.3 66
Loading
Personal Weather Stations






























Interactive Weather Map New forecast layout! Learn more

10-Day Weather Forecast

Advertisements
Track Severe Weather on mobile